sensor_id;sensor_type;location;lat;lon;timestamp;temperature;humidity
3550;DHT22;45572;48.804;8.330;2022-08-21T00:03:04;16.70;86.80
3550;DHT22;45572;48.804;8.330;2022-08-21T00:05:35;16.70;86.30
3550;DHT22;45572;48.804;8.330;2022-08-21T00:08:03;16.80;86.20
3550;DHT22;45572;48.804;8.330;2022-08-21T00:10:31;16.70;85.90
3550;DHT22;45572;48.804;8.330;2022-08-21T00:13:00;16.80;85.70
3550;DHT22;45572;48.804;8.330;2022-08-21T00:15:34;16.90;85.60
3550;DHT22;45572;48.804;8.330;2022-08-21T00:18:05;16.90;85.40
3550;DHT22;45572;48.804;8.330;2022-08-21T00:20:33;17.00;85.10
3550;DHT22;45572;48.804;8.330;2022-08-21T00:23:02;17.00;85.00
3550;DHT22;45572;48.804;8.330;2022-08-21T00:25:30;17.00;85.30
3550;DHT22;45572;48.804;8.330;2022-08-21T00:27:58;17.10;85.10
3550;DHT22;45572;48.804;8.330;2022-08-21T00:30:27;17.10;85.20
3550;DHT22;45572;48.804;8.330;2022-08-21T00:32:56;17.00;85.30
3550;DHT22;45572;48.804;8.330;2022-08-21T00:35:30;16.90;85.60
3550;DHT22;45572;48.804;8.330;2022-08-21T00:37:58;16.90;85.60
3550;DHT22;45572;48.804;8.330;2022-08-21T00:40:30;16.90;85.60
3550;DHT22;45572;48.804;8.330;2022-08-21T00:42:58;16.80;85.70
3550;DHT22;45572;48.804;8.330;2022-08-21T00:45:27;16.80;85.70
3550;DHT22;45572;48.804;8.330;2022-08-21T00:47:55;16.70;85.80
3550;DHT22;45572;48.804;8.330;2022-08-21T00:50:28;16.70;85.90
3550;DHT22;45572;48.804;8.330;2022-08-21T00:52:58;16.60;85.80
3550;DHT22;45572;48.804;8.330;2022-08-21T00:55:28;16.50;86.10
3550;DHT22;45572;48.804;8.330;2022-08-21T00:57:59;16.50;86.50
3550;DHT22;45572;48.804;8.330;2022-08-21T01:00:31;16.10;87.30
3550;DHT22;45572;48.804;8.330;2022-08-21T01:03:01;16.20;87.20
3550;DHT22;45572;48.804;8.330;2022-08-21T01:05:34;16.10;87.20
3550;DHT22;45572;48.804;8.330;2022-08-21T01:08:03;16.10;87.40
3550;DHT22;45572;48.804;8.330;2022-08-21T01:10:31;16.10;87.40
3550;DHT22;45572;48.804;8.330;2022-08-21T01:13:00;15.90;87.80
3550;DHT22;45572;48.804;8.330;2022-08-21T01:15:32;15.90;87.90
3550;DHT22;45572;48.804;8.330;2022-08-21T01:18:01;16.00;87.80
3550;DHT22;45572;48.804;8.330;2022-08-21T01:20:30;16.00;87.70
3550;DHT22;45572;48.804;8.330;2022-08-21T01:23:00;16.00;87.70
3550;DHT22;45572;48.804;8.330;2022-08-21T01:25:28;16.00;87.50
3550;DHT22;45572;48.804;8.330;2022-08-21T01:27:57;16.00;87.80
3550;DHT22;45572;48.804;8.330;2022-08-21T01:30:28;15.80;87.90
3550;DHT22;45572;48.804;8.330;2022-08-21T01:32:56;15.90;88.00
3550;DHT22;45572;48.804;8.330;2022-08-21T01:35:25;15.90;87.80
3550;DHT22;45572;48.804;8.330;2022-08-21T01:37:53;15.70;88.40
3550;DHT22;45572;48.804;8.330;2022-08-21T01:40:22;15.70;88.60
3550;DHT22;45572;48.804;8.330;2022-08-21T01:42:50;15.70;88.70
3550;DHT22;45572;48.804;8.330;2022-08-21T01:45:17;15.80;88.40
3550;DHT22;45572;48.804;8.330;2022-08-21T01:47:46;15.90;87.70
3550;DHT22;45572;48.804;8.330;2022-08-21T01:50:18;15.90;87.80
3550;DHT22;45572;48.804;8.330;2022-08-21T01:52:47;15.80;87.70
3550;DHT22;45572;48.804;8.330;2022-08-21T01:55:17;15.70;88.20
3550;DHT22;45572;48.804;8.330;2022-08-21T01:57:47;15.80;88.00
3550;DHT22;45572;48.804;8.330;2022-08-21T02:00:19;15.90;87.40
3550;DHT22;45572;48.804;8.330;2022-08-21T02:02:49;15.80;87.50
3550;DHT22;45572;48.804;8.330;2022-08-21T02:05:18;15.70;87.70
3550;DHT22;45572;48.804;8.330;2022-08-21T02:07:50;15.70;88.10
3550;DHT22;45572;48.804;8.330;2022-08-21T02:10:20;15.70;88.10
3550;DHT22;45572;48.804;8.330;2022-08-21T02:12:50;15.80;87.80
3550;DHT22;45572;48.804;8.330;2022-08-21T02:15:18;15.80;87.60
3550;DHT22;45572;48.804;8.330;2022-08-21T02:17:49;15.80;87.50
3550;DHT22;45572;48.804;8.330;2022-08-21T02:20:21;15.80;87.20
3550;DHT22;45572;48.804;8.330;2022-08-21T02:22:49;15.80;87.30
3550;DHT22;45572;48.804;8.330;2022-08-21T02:25:17;15.80;87.50
3550;DHT22;45572;48.804;8.330;2022-08-21T02:27:46;15.80;87.50
3550;DHT22;45572;48.804;8.330;2022-08-21T02:30:20;15.80;87.40
3550;DHT22;45572;48.804;8.330;2022-08-21T02:32:48;15.60;88.00
3550;DHT22;45572;48.804;8.330;2022-08-21T02:35:16;15.40;88.50
3550;DHT22;45572;48.804;8.330;2022-08-21T02:37:47;15.30;88.70
3550;DHT22;45572;48.804;8.330;2022-08-21T02:40:17;15.30;89.00
3550;DHT22;45572;48.804;8.330;2022-08-21T02:42:46;15.30;88.80
3550;DHT22;45572;48.804;8.330;2022-08-21T02:45:14;15.40;88.40
3550;DHT22;45572;48.804;8.330;2022-08-21T02:47:48;15.50;88.30
3550;DHT22;45572;48.804;8.330;2022-08-21T02:50:18;15.30;88.50
3550;DHT22;45572;48.804;8.330;2022-08-21T02:52:47;15.20;88.90
3550;DHT22;45572;48.804;8.330;2022-08-21T02:55:21;15.30;88.60
3550;DHT22;45572;48.804;8.330;2022-08-21T02:57:50;15.30;88.70
3550;DHT22;45572;48.804;8.330;2022-08-21T03:00:18;15.20;88.90
3550;DHT22;45572;48.804;8.330;2022-08-21T03:02:48;15.20;88.90
3550;DHT22;45572;48.804;8.330;2022-08-21T03:05:17;15.20;88.70
3550;DHT22;45572;48.804;8.330;2022-08-21T03:07:46;15.20;88.90
3550;DHT22;45572;48.804;8.330;2022-08-21T03:10:16;15.20;89.00
3550;DHT22;45572;48.804;8.330;2022-08-21T03:12:43;15.10;89.00
3550;DHT22;45572;48.804;8.330;2022-08-21T03:15:18;15.10;89.30
3550;DHT22;45572;48.804;8.330;2022-08-21T03:17:48;15.00;89.10
3550;DHT22;45572;48.804;8.330;2022-08-21T03:20:22;15.00;89.30
3550;DHT22;45572;48.804;8.330;2022-08-21T03:22:51;15.00;89.50
3550;DHT22;45572;48.804;8.330;2022-08-21T03:25:20;15.10;89.30
3550;DHT22;45572;48.804;8.330;2022-08-21T03:28:10;15.00;89.10
3550;DHT22;45572;48.804;8.330;2022-08-21T03:30:39;14.80;89.40
3550;DHT22;45572;48.804;8.330;2022-08-21T03:33:09;14.80;89.60
3550;DHT22;45572;48.804;8.330;2022-08-21T03:35:41;14.70;90.30
3550;DHT22;45572;48.804;8.330;2022-08-21T03:38:10;14.60;90.60
3550;DHT22;45572;48.804;8.330;2022-08-21T03:40:39;14.70;90.70
3550;DHT22;45572;48.804;8.330;2022-08-21T03:43:07;14.70;90.70
3550;DHT22;45572;48.804;8.330;2022-08-21T03:45:36;14.70;90.70
3550;DHT22;45572;48.804;8.330;2022-08-21T03:48:05;14.70;90.90
3550;DHT22;45572;48.804;8.330;2022-08-21T03:50:39;14.80;91.00
3550;DHT22;45572;48.804;8.330;2022-08-21T03:53:07;14.80;90.90
3550;DHT22;45572;48.804;8.330;2022-08-21T03:55:44;14.90;90.60
3550;DHT22;45572;48.804;8.330;2022-08-21T03:58:13;14.70;90.40
3550;DHT22;45572;48.804;8.330;2022-08-21T04:00:43;14.80;90.30
3550;DHT22;45572;48.804;8.330;2022-08-21T04:03:11;14.80;90.20
3550;DHT22;45572;48.804;8.330;2022-08-21T04:05:41;14.80;89.80
3550;DHT22;45572;48.804;8.330;2022-08-21T04:08:09;14.80;89.60
3550;DHT22;45572;48.804;8.330;2022-08-21T04:10:38;14.90;89.60
3550;DHT22;45572;48.804;8.330;2022-08-21T04:13:07;14.90;89.50
3550;DHT22;45572;48.804;8.330;2022-08-21T04:15:36;14.60;89.60
3550;DHT22;45572;48.804;8.330;2022-08-21T04:18:04;14.70;89.80
3550;DHT22;45572;48.804;8.330;2022-08-21T04:20:32;14.50;90.40
3550;DHT22;45572;48.804;8.330;2022-08-21T04:23:01;14.50;90.40
3550;DHT22;45572;48.804;8.330;2022-08-21T04:25:29;14.60;90.40
3550;DHT22;45572;48.804;8.330;2022-08-21T04:27:57;14.60;90.30
3550;DHT22;45572;48.804;8.330;2022-08-21T04:30:25;14.60;90.30
3550;DHT22;45572;48.804;8.330;2022-08-21T04:32:56;14.60;90.10
3550;DHT22;45572;48.804;8.330;2022-08-21T04:35:25;14.60;90.10
3550;DHT22;45572;48.804;8.330;2022-08-21T04:37:54;14.60;90.00
3550;DHT22;45572;48.804;8.330;2022-08-21T04:40:25;14.50;90.30
3550;DHT22;45572;48.804;8.330;2022-08-21T04:42:55;14.50;90.40
3550;DHT22;45572;48.804;8.330;2022-08-21T04:45:26;14.40;90.50
3550;DHT22;45572;48.804;8.330;2022-08-21T04:47:55;14.40;90.60
3550;DHT22;45572;48.804;8.330;2022-08-21T04:50:27;14.30;90.80
3550;DHT22;45572;48.804;8.330;2022-08-21T04:53:03;14.20;91.30
3550;DHT22;45572;48.804;8.330;2022-08-21T04:55:32;14.20;91.30
3550;DHT22;45572;48.804;8.330;2022-08-21T04:58:01;14.20;91.60
3550;DHT22;45572;48.804;8.330;2022-08-21T05:00:28;14.20;91.70
3550;DHT22;45572;48.804;8.330;2022-08-21T05:02:57;14.30;91.60
3550;DHT22;45572;48.804;8.330;2022-08-21T05:05:28;14.40;91.40
3550;DHT22;45572;48.804;8.330;2022-08-21T05:07:57;14.50;90.70
3550;DHT22;45572;48.804;8.330;2022-08-21T05:10:26;14.50;90.40
3550;DHT22;45572;48.804;8.330;2022-08-21T05:12:56;14.50;90.30
3550;DHT22;45572;48.804;8.330;2022-08-21T05:15:24;14.50;90.60
3550;DHT22;45572;48.804;8.330;2022-08-21T05:17:52;14.40;91.30
3550;DHT22;45572;48.804;8.330;2022-08-21T05:20:27;14.50;91.20
3550;DHT22;45572;48.804;8.330;2022-08-21T05:22:56;14.60;91.00
3550;DHT22;45572;48.804;8.330;2022-08-21T05:25:24;14.60;91.10
3550;DHT22;45572;48.804;8.330;2022-08-21T05:27:53;14.60;91.10
3550;DHT22;45572;48.804;8.330;2022-08-21T05:30:27;14.60;90.90
3550;DHT22;45572;48.804;8.330;2022-08-21T05:32:57;14.60;90.70
3550;DHT22;45572;48.804;8.330;2022-08-21T05:35:26;14.60;91.30
3550;DHT22;45572;48.804;8.330;2022-08-21T05:37:54;14.80;91.20
3550;DHT22;45572;48.804;8.330;2022-08-21T05:40:22;15.00;90.80
3550;DHT22;45572;48.804;8.330;2022-08-21T05:42:51;15.20;90.30
3550;DHT22;45572;48.804;8.330;2022-08-21T05:45:22;15.30;89.10
3550;DHT22;45572;48.804;8.330;2022-08-21T05:48:13;15.50;88.10
3550;DHT22;45572;48.804;8.330;2022-08-21T05:50:42;15.70;88.10
3550;DHT22;45572;48.804;8.330;2022-08-21T05:53:10;16.00;87.10
3550;DHT22;45572;48.804;8.330;2022-08-21T05:55:39;16.10;86.50
3550;DHT22;45572;48.804;8.330;2022-08-21T05:58:13;16.30;86.70
3550;DHT22;45572;48.804;8.330;2022-08-21T06:00:42;16.40;85.20
3550;DHT22;45572;48.804;8.330;2022-08-21T06:03:13;16.50;85.10
3550;DHT22;45572;48.804;8.330;2022-08-21T06:05:40;16.70;84.20
3550;DHT22;45572;48.804;8.330;2022-08-21T06:08:08;16.80;84.70
3550;DHT22;45572;48.804;8.330;2022-08-21T06:10:36;17.20;83.70
3550;DHT22;45572;48.804;8.330;2022-08-21T06:13:04;17.50;82.70
3550;DHT22;45572;48.804;8.330;2022-08-21T06:15:32;18.20;81.00
3550;DHT22;45572;48.804;8.330;2022-08-21T06:18:01;19.30;78.10
3550;DHT22;45572;48.804;8.330;2022-08-21T06:20:30;20.30;73.70
3550;DHT22;45572;48.804;8.330;2022-08-21T06:22:58;21.10;72.20
3550;DHT22;45572;48.804;8.330;2022-08-21T06:25:26;22.00;69.20
3550;DHT22;45572;48.804;8.330;2022-08-21T06:28:00;22.60;68.50
3550;DHT22;45572;48.804;8.330;2022-08-21T06:30:28;23.20;66.50
3550;DHT22;45572;48.804;8.330;2022-08-21T06:32:56;24.10;63.50
3550;DHT22;45572;48.804;8.330;2022-08-21T06:35:25;25.20;61.30
3550;DHT22;45572;48.804;8.330;2022-08-21T06:37:54;26.20;58.00
3550;DHT22;45572;48.804;8.330;2022-08-21T06:40:22;26.80;56.70
3550;DHT22;45572;48.804;8.330;2022-08-21T06:42:50;27.30;54.40
3550;DHT22;45572;48.804;8.330;2022-08-21T06:45:19;27.60;53.60
3550;DHT22;45572;48.804;8.330;2022-08-21T06:47:49;27.60;54.00
3550;DHT22;45572;48.804;8.330;2022-08-21T06:50:17;28.10;53.00
3550;DHT22;45572;48.804;8.330;2022-08-21T06:52:46;28.40;51.80
3550;DHT22;45572;48.804;8.330;2022-08-21T06:55:15;28.20;52.80
3550;DHT22;45572;48.804;8.330;2022-08-21T06:57:49;29.20;51.20
3550;DHT22;45572;48.804;8.330;2022-08-21T07:00:18;29.10;50.70
3550;DHT22;45572;48.804;8.330;2022-08-21T07:02:46;30.00;49.50
3550;DHT22;45572;48.804;8.330;2022-08-21T07:05:14;30.60;47.80
3550;DHT22;45572;48.804;8.330;2022-08-21T07:07:44;29.50;49.40
3550;DHT22;45572;48.804;8.330;2022-08-21T07:10:13;30.60;48.60
3550;DHT22;45572;48.804;8.330;2022-08-21T07:12:50;31.50;46.70
3550;DHT22;45572;48.804;8.330;2022-08-21T07:15:28;31.60;46.50
3550;DHT22;45572;48.804;8.330;2022-08-21T07:17:56;31.20;46.50
3550;DHT22;45572;48.804;8.330;2022-08-21T07:20:25;31.10;46.60
3550;DHT22;45572;48.804;8.330;2022-08-21T07:22:53;32.00;45.20
3550;DHT22;45572;48.804;8.330;2022-08-21T07:25:21;33.00;44.50
3550;DHT22;45572;48.804;8.330;2022-08-21T07:27:51;33.90;43.60
3550;DHT22;45572;48.804;8.330;2022-08-21T07:30:19;33.20;43.00
3550;DHT22;45572;48.804;8.330;2022-08-21T07:32:47;33.80;44.30
3550;DHT22;45572;48.804;8.330;2022-08-21T07:35:16;33.70;42.90
3550;DHT22;45572;48.804;8.330;2022-08-21T07:37:45;34.30;42.40
3550;DHT22;45572;48.804;8.330;2022-08-21T07:40:13;34.90;42.20
3550;DHT22;45572;48.804;8.330;2022-08-21T07:42:45;35.40;42.00
3550;DHT22;45572;48.804;8.330;2022-08-21T07:45:14;35.50;41.20
3550;DHT22;45572;48.804;8.330;2022-08-21T07:47:42;35.70;41.50
3550;DHT22;45572;48.804;8.330;2022-08-21T07:50:11;36.30;41.00
3550;DHT22;45572;48.804;8.330;2022-08-21T07:52:40;36.40;40.80
3550;DHT22;45572;48.804;8.330;2022-08-21T07:55:10;37.00;40.10
3550;DHT22;45572;48.804;8.330;2022-08-21T07:57:38;37.70;39.50
3550;DHT22;45572;48.804;8.330;2022-08-21T08:00:10;38.10;39.30
3550;DHT22;45572;48.804;8.330;2022-08-21T08:02:52;38.30;38.50
3550;DHT22;45572;48.804;8.330;2022-08-21T08:05:23;38.10;38.80
3550;DHT22;45572;48.804;8.330;2022-08-21T08:07:51;38.00;38.70
3550;DHT22;45572;48.804;8.330;2022-08-21T08:10:20;38.40;38.70
3550;DHT22;45572;48.804;8.330;2022-08-21T08:12:49;38.20;38.00
3550;DHT22;45572;48.804;8.330;2022-08-21T08:15:21;38.60;38.60
3550;DHT22;45572;48.804;8.330;2022-08-21T08:17:48;38.60;38.30
3550;DHT22;45572;48.804;8.330;2022-08-21T08:20:18;39.10;37.90
3550;DHT22;45572;48.804;8.330;2022-08-21T08:22:48;39.30;37.60
3550;DHT22;45572;48.804;8.330;2022-08-21T08:25:17;39.20;37.70
3550;DHT22;45572;48.804;8.330;2022-08-21T08:27:45;39.60;37.10
3550;DHT22;45572;48.804;8.330;2022-08-21T08:30:15;39.20;37.00
3550;DHT22;45572;48.804;8.330;2022-08-21T08:32:45;39.60;36.90
3550;DHT22;45572;48.804;8.330;2022-08-21T08:35:13;40.00;36.30
3550;DHT22;45572;48.804;8.330;2022-08-21T08:37:43;40.00;36.60
3550;DHT22;45572;48.804;8.330;2022-08-21T08:40:22;40.10;36.20
3550;DHT22;45572;48.804;8.330;2022-08-21T08:42:52;40.20;36.80
3550;DHT22;45572;48.804;8.330;2022-08-21T08:45:22;40.30;36.50
3550;DHT22;45572;48.804;8.330;2022-08-21T08:47:56;40.20;36.20
3550;DHT22;45572;48.804;8.330;2022-08-21T08:50:28;40.10;36.20
3550;DHT22;45572;48.804;8.330;2022-08-21T08:53:05;40.00;36.10
3550;DHT22;45572;48.804;8.330;2022-08-21T08:55:36;39.60;37.20
3550;DHT22;45572;48.804;8.330;2022-08-21T08:58:05;40.10;35.90
3550;DHT22;45572;48.804;8.330;2022-08-21T09:00:33;39.70;36.20
3550;DHT22;45572;48.804;8.330;2022-08-21T09:03:02;39.80;35.90
3550;DHT22;45572;48.804;8.330;2022-08-21T09:05:40;39.90;36.50
3550;DHT22;45572;48.804;8.330;2022-08-21T09:08:20;40.30;35.60
3550;DHT22;45572;48.804;8.330;2022-08-21T09:11:03;40.50;36.10
3550;DHT22;45572;48.804;8.330;2022-08-21T09:13:42;40.80;34.80
3550;DHT22;45572;48.804;8.330;2022-08-21T09:16:18;40.40;34.90
3550;DHT22;45572;48.804;8.330;2022-08-21T09:18:55;40.70;34.70
3550;DHT22;45572;48.804;8.330;2022-08-21T09:21:35;40.90;34.40
3550;DHT22;45572;48.804;8.330;2022-08-21T09:24:28;41.00;34.60
3550;DHT22;45572;48.804;8.330;2022-08-21T09:27:04;41.10;34.10
3550;DHT22;45572;48.804;8.330;2022-08-21T09:29:36;41.20;34.50
3550;DHT22;45572;48.804;8.330;2022-08-21T09:32:10;41.10;33.70
3550;DHT22;45572;48.804;8.330;2022-08-21T09:34:56;41.20;33.90
3550;DHT22;45572;48.804;8.330;2022-08-21T09:37:25;41.60;34.30
3550;DHT22;45572;48.804;8.330;2022-08-21T09:39:57;41.50;34.00
3550;DHT22;45572;48.804;8.330;2022-08-21T09:42:29;41.60;33.70
3550;DHT22;45572;48.804;8.330;2022-08-21T09:45:11;42.10;33.90
3550;DHT22;45572;48.804;8.330;2022-08-21T09:47:41;42.50;33.30
3550;DHT22;45572;48.804;8.330;2022-08-21T09:50:12;42.40;32.50
3550;DHT22;45572;48.804;8.330;2022-08-21T09:52:46;42.30;33.40
3550;DHT22;45572;48.804;8.330;2022-08-21T09:55:26;42.30;33.00
3550;DHT22;45572;48.804;8.330;2022-08-21T09:58:09;42.30;32.50
3550;DHT22;45572;48.804;8.330;2022-08-21T10:00:38;40.90;33.00
3550;DHT22;45572;48.804;8.330;2022-08-21T10:03:11;41.40;33.80
3550;DHT22;45572;48.804;8.330;2022-08-21T10:05:40;41.90;33.20
3550;DHT22;45572;48.804;8.330;2022-08-21T10:08:18;42.30;32.90
3550;DHT22;45572;48.804;8.330;2022-08-21T10:11:07;42.40;33.40
3550;DHT22;45572;48.804;8.330;2022-08-21T10:13:46;42.40;32.30
3550;DHT22;45572;48.804;8.330;2022-08-21T10:16:28;42.50;32.90
3550;DHT22;45572;48.804;8.330;2022-08-21T10:19:08;42.90;32.00
3550;DHT22;45572;48.804;8.330;2022-08-21T10:21:43;43.00;31.40
3550;DHT22;45572;48.804;8.330;2022-08-21T10:24:20;43.20;31.40
3550;DHT22;45572;48.804;8.330;2022-08-21T10:27:05;43.00;30.80
3550;DHT22;45572;48.804;8.330;2022-08-21T10:29:44;42.60;31.80
3550;DHT22;45572;48.804;8.330;2022-08-21T10:32:23;42.90;31.00
3550;DHT22;45572;48.804;8.330;2022-08-21T10:34:59;42.50;31.10
3550;DHT22;45572;48.804;8.330;2022-08-21T10:37:48;42.20;31.70
3550;DHT22;45572;48.804;8.330;2022-08-21T10:40:23;42.30;31.30
3550;DHT22;45572;48.804;8.330;2022-08-21T10:43:04;42.00;32.80
3550;DHT22;45572;48.804;8.330;2022-08-21T10:45:46;41.80;32.60
3550;DHT22;45572;48.804;8.330;2022-08-21T10:48:28;41.20;33.40
3550;DHT22;45572;48.804;8.330;2022-08-21T10:51:04;41.20;33.50
3550;DHT22;45572;48.804;8.330;2022-08-21T10:53:44;40.90;34.00
3550;DHT22;45572;48.804;8.330;2022-08-21T10:56:17;41.00;33.40
3550;DHT22;45572;48.804;8.330;2022-08-21T10:58:53;41.60;33.50
3550;DHT22;45572;48.804;8.330;2022-08-21T11:01:28;42.00;31.80
3550;DHT22;45572;48.804;8.330;2022-08-21T11:04:09;42.00;32.60
3550;DHT22;45572;48.804;8.330;2022-08-21T11:06:41;41.80;32.30
3550;DHT22;45572;48.804;8.330;2022-08-21T11:09:13;41.50;32.40
3550;DHT22;45572;48.804;8.330;2022-08-21T11:11:47;41.60;32.00
3550;DHT22;45572;48.804;8.330;2022-08-21T11:14:44;41.20;32.90
3550;DHT22;45572;48.804;8.330;2022-08-21T11:17:20;40.10;33.60
3550;DHT22;45572;48.804;8.330;2022-08-21T11:19:54;40.50;34.40
3550;DHT22;45572;48.804;8.330;2022-08-21T11:22:31;40.90;33.70
3550;DHT22;45572;48.804;8.330;2022-08-21T11:25:08;41.50;33.10
3550;DHT22;45572;48.804;8.330;2022-08-21T11:27:42;42.00;32.20
3550;DHT22;45572;48.804;8.330;2022-08-21T11:30:13;41.80;33.00
3550;DHT22;45572;48.804;8.330;2022-08-21T11:32:56;41.50;32.40
3550;DHT22;45572;48.804;8.330;2022-08-21T11:35:33;41.40;32.60
3550;DHT22;45572;48.804;8.330;2022-08-21T11:38:15;41.30;32.50
3550;DHT22;45572;48.804;8.330;2022-08-21T11:40:58;41.60;32.40
3550;DHT22;45572;48.804;8.330;2022-08-21T11:43:37;40.80;33.50
3550;DHT22;45572;48.804;8.330;2022-08-21T11:46:16;41.50;32.60
3550;DHT22;45572;48.804;8.330;2022-08-21T11:48:59;41.90;31.60
3550;DHT22;45572;48.804;8.330;2022-08-21T11:51:34;41.10;32.40
3550;DHT22;45572;48.804;8.330;2022-08-21T11:54:08;39.90;34.10
3550;DHT22;45572;48.804;8.330;2022-08-21T11:56:39;39.90;34.20
3550;DHT22;45572;48.804;8.330;2022-08-21T11:59:12;39.60;34.50
3550;DHT22;45572;48.804;8.330;2022-08-21T12:01:43;38.80;34.70
3550;DHT22;45572;48.804;8.330;2022-08-21T12:04:20;38.00;36.00
3550;DHT22;45572;48.804;8.330;2022-08-21T12:06:55;38.20;35.70
3550;DHT22;45572;48.804;8.330;2022-08-21T12:09:31;37.90;35.80
3550;DHT22;45572;48.804;8.330;2022-08-21T12:12:04;38.20;35.80
3550;DHT22;45572;48.804;8.330;2022-08-21T12:14:41;38.60;35.50
3550;DHT22;45572;48.804;8.330;2022-08-21T12:17:19;39.50;34.90
3550;DHT22;45572;48.804;8.330;2022-08-21T12:19:58;39.60;33.90
3550;DHT22;45572;48.804;8.330;2022-08-21T12:22:36;39.80;33.40
3550;DHT22;45572;48.804;8.330;2022-08-21T12:25:10;39.70;34.00
3550;DHT22;45572;48.804;8.330;2022-08-21T12:27:45;39.20;34.40
3550;DHT22;45572;48.804;8.330;2022-08-21T12:30:22;38.30;35.40
3550;DHT22;45572;48.804;8.330;2022-08-21T12:32:58;37.00;36.00
3550;DHT22;45572;48.804;8.330;2022-08-21T12:35:37;36.00;37.30
3550;DHT22;45572;48.804;8.330;2022-08-21T12:38:09;35.40;38.30
3550;DHT22;45572;48.804;8.330;2022-08-21T12:40:47;34.60;39.60
3550;DHT22;45572;48.804;8.330;2022-08-21T12:43:20;33.70;40.60
3550;DHT22;45572;48.804;8.330;2022-08-21T12:45:50;33.20;40.50
3550;DHT22;45572;48.804;8.330;2022-08-21T12:48:22;32.80;41.00
3550;DHT22;45572;48.804;8.330;2022-08-21T12:50:53;32.30;41.90
3550;DHT22;45572;48.804;8.330;2022-08-21T12:53:28;32.00;42.20
3550;DHT22;45572;48.804;8.330;2022-08-21T12:56:02;31.80;43.10
3550;DHT22;45572;48.804;8.330;2022-08-21T12:58:31;31.60;43.20
3550;DHT22;45572;48.804;8.330;2022-08-21T13:01:01;31.60;42.00
3550;DHT22;45572;48.804;8.330;2022-08-21T13:03:35;31.40;42.90
3550;DHT22;45572;48.804;8.330;2022-08-21T13:06:05;31.10;43.60
3550;DHT22;45572;48.804;8.330;2022-08-21T13:08:34;31.10;44.00
3550;DHT22;45572;48.804;8.330;2022-08-21T13:11:07;30.90;44.20
3550;DHT22;45572;48.804;8.330;2022-08-21T13:13:42;30.90;43.70
3550;DHT22;45572;48.804;8.330;2022-08-21T13:16:19;30.70;43.60
3550;DHT22;45572;48.804;8.330;2022-08-21T13:18:55;30.70;44.00
3550;DHT22;45572;48.804;8.330;2022-08-21T13:21:29;30.70;44.40
3550;DHT22;45572;48.804;8.330;2022-08-21T13:24:13;30.70;44.10
3550;DHT22;45572;48.804;8.330;2022-08-21T13:27:02;30.80;44.20
3550;DHT22;45572;48.804;8.330;2022-08-21T13:29:32;30.70;44.30
3550;DHT22;45572;48.804;8.330;2022-08-21T13:32:05;30.50;44.10
3550;DHT22;45572;48.804;8.330;2022-08-21T13:34:37;30.40;45.50
3550;DHT22;45572;48.804;8.330;2022-08-21T13:37:07;30.40;43.90
3550;DHT22;45572;48.804;8.330;2022-08-21T13:39:36;30.20;44.10
3550;DHT22;45572;48.804;8.330;2022-08-21T13:42:10;30.20;44.70
3550;DHT22;45572;48.804;8.330;2022-08-21T13:44:41;30.20;44.40
3550;DHT22;45572;48.804;8.330;2022-08-21T13:47:12;30.00;44.90
3550;DHT22;45572;48.804;8.330;2022-08-21T13:49:45;30.10;45.80
3550;DHT22;45572;48.804;8.330;2022-08-21T13:52:16;30.20;45.00
3550;DHT22;45572;48.804;8.330;2022-08-21T13:54:51;30.40;45.10
3550;DHT22;45572;48.804;8.330;2022-08-21T13:57:23;30.30;44.20
3550;DHT22;45572;48.804;8.330;2022-08-21T13:59:52;30.40;44.60
3550;DHT22;45572;48.804;8.330;2022-08-21T14:02:21;30.40;44.30
3550;DHT22;45572;48.804;8.330;2022-08-21T14:04:55;30.40;44.20
3550;DHT22;45572;48.804;8.330;2022-08-21T14:07:29;30.40;43.90
3550;DHT22;45572;48.804;8.330;2022-08-21T14:10:03;30.20;44.80
3550;DHT22;45572;48.804;8.330;2022-08-21T14:12:36;30.20;45.20
3550;DHT22;45572;48.804;8.330;2022-08-21T14:15:06;30.20;45.60
3550;DHT22;45572;48.804;8.330;2022-08-21T14:17:36;30.10;44.30
3550;DHT22;45572;48.804;8.330;2022-08-21T14:20:11;30.10;45.00
3550;DHT22;45572;48.804;8.330;2022-08-21T14:22:41;30.00;44.40
3550;DHT22;45572;48.804;8.330;2022-08-21T14:25:12;29.90;44.60
3550;DHT22;45572;48.804;8.330;2022-08-21T14:27:44;29.80;45.20
3550;DHT22;45572;48.804;8.330;2022-08-21T14:30:18;29.80;45.20
3550;DHT22;45572;48.804;8.330;2022-08-21T14:32:47;29.70;45.20
3550;DHT22;45572;48.804;8.330;2022-08-21T14:35:16;29.80;45.90
3550;DHT22;45572;48.804;8.330;2022-08-21T14:37:52;29.80;45.40
3550;DHT22;45572;48.804;8.330;2022-08-21T14:40:22;29.90;44.60
3550;DHT22;45572;48.804;8.330;2022-08-21T14:42:53;29.80;45.20
3550;DHT22;45572;48.804;8.330;2022-08-21T14:45:26;29.80;45.30
3550;DHT22;45572;48.804;8.330;2022-08-21T14:47:55;29.80;45.00
3550;DHT22;45572;48.804;8.330;2022-08-21T14:50:24;29.80;45.20
3550;DHT22;45572;48.804;8.330;2022-08-21T14:52:54;29.80;45.30
3550;DHT22;45572;48.804;8.330;2022-08-21T14:55:21;29.80;44.40
3550;DHT22;45572;48.804;8.330;2022-08-21T14:57:51;29.70;44.60
3550;DHT22;45572;48.804;8.330;2022-08-21T15:00:21;29.70;45.20
3550;DHT22;45572;48.804;8.330;2022-08-21T15:03:01;29.70;45.00
3550;DHT22;45572;48.804;8.330;2022-08-21T15:05:30;29.60;45.10
3550;DHT22;45572;48.804;8.330;2022-08-21T15:08:00;29.60;44.70
3550;DHT22;45572;48.804;8.330;2022-08-21T15:10:27;29.70;44.80
3550;DHT22;45572;48.804;8.330;2022-08-21T15:12:57;29.70;45.50
3550;DHT22;45572;48.804;8.330;2022-08-21T15:15:25;29.70;45.40
3550;DHT22;45572;48.804;8.330;2022-08-21T15:17:53;29.80;45.70
3550;DHT22;45572;48.804;8.330;2022-08-21T15:20:21;29.50;44.40
3550;DHT22;45572;48.804;8.330;2022-08-21T15:22:50;29.50;45.80
3550;DHT22;45572;48.804;8.330;2022-08-21T15:25:18;29.60;45.10
3550;DHT22;45572;48.804;8.330;2022-08-21T15:27:46;29.60;45.20
3550;DHT22;45572;48.804;8.330;2022-08-21T15:30:14;29.60;44.80
3550;DHT22;45572;48.804;8.330;2022-08-21T15:32:44;29.60;44.70
3550;DHT22;45572;48.804;8.330;2022-08-21T15:35:12;29.50;45.10
3550;DHT22;45572;48.804;8.330;2022-08-21T15:37:39;29.50;44.60
3550;DHT22;45572;48.804;8.330;2022-08-21T15:40:10;29.60;45.30
3550;DHT22;45572;48.804;8.330;2022-08-21T15:42:40;29.50;45.30
3550;DHT22;45572;48.804;8.330;2022-08-21T15:45:11;29.50;45.90
3550;DHT22;45572;48.804;8.330;2022-08-21T15:47:43;29.40;45.40
3550;DHT22;45572;48.804;8.330;2022-08-21T15:50:12;29.40;44.20
3550;DHT22;45572;48.804;8.330;2022-08-21T15:52:43;29.40;45.80
3550;DHT22;45572;48.804;8.330;2022-08-21T15:55:13;29.30;44.90
3550;DHT22;45572;48.804;8.330;2022-08-21T15:57:45;29.30;45.40
3550;DHT22;45572;48.804;8.330;2022-08-21T16:00:24;29.30;47.30
3550;DHT22;45572;48.804;8.330;2022-08-21T16:02:55;29.30;49.00
3550;DHT22;45572;48.804;8.330;2022-08-21T16:05:23;29.30;47.10
3550;DHT22;45572;48.804;8.330;2022-08-21T16:07:51;29.20;46.60
3550;DHT22;45572;48.804;8.330;2022-08-21T16:10:22;29.10;47.50
3550;DHT22;45572;48.804;8.330;2022-08-21T16:12:57;29.00;46.80
3550;DHT22;45572;48.804;8.330;2022-08-21T16:15:27;29.00;48.50